Time;durP1;ratioP1;P1;durP2;ratioP2;P2;SDS_P1;SDS_P2;PMS_P1;PMS_P2;Temp;Humidity;BMP_temperature;BMP_pressure;BME280_temperature;BME280_humidity;BME280_pressure;Samples;Min_cycle;Max_cycle;Signal;HPM_P1;HPM_P2
2023/10/04 00:02:24;;;;;;;;;;;16.20;99.90;;;;;;5080583;28;20373;-65
2023/10/04 00:04:52;;;;;;;;;;;16.10;99.90;;;;;;5072042;28;19935;-65
2023/10/04 00:07:20;;;;;;;;;;;16.00;99.90;;;;;;5071632;28;20371;-65
2023/10/04 00:09:49;;;;;;;;;;;16.10;99.90;;;;;;5080389;28;19928;-65
2023/10/04 00:12:17;;;;;;;;;;;16.00;99.90;;;;;;5079163;28;20041;-65
2023/10/04 00:14:45;;;;;;;;;;;16.00;99.90;;;;;;5071925;28;19924;-64
2023/10/04 00:17:14;;;;;;;;;;;16.30;99.90;;;;;;5071695;28;20326;-66
2023/10/04 00:19:41;;;;;;;;;;;16.40;99.90;;;;;;5080322;28;20445;-65
2023/10/04 00:22:09;;;;;;;;;;;16.50;99.90;;;;;;5080152;28;19928;-64
2023/10/04 00:24:37;;;;;;;;;;;16.80;99.90;;;;;;5071721;28;19974;-63
2023/10/04 00:27:06;;;;;;;;;;;16.60;99.90;;;;;;5071047;28;20414;-65
2023/10/04 00:29:35;;;;;;;;;;;16.40;99.90;;;;;;5079681;28;20023;-65
2023/10/04 00:32:03;;;;;;;;;;;16.30;99.90;;;;;;5079997;28;20365;-66
2023/10/04 00:34:31;;;;;;;;;;;16.30;99.90;;;;;;5075416;28;19924;-66
2023/10/04 00:36:59;;;;;;;;;;;16.30;99.90;;;;;;5083220;28;19977;-65
2023/10/04 00:39:26;;;;;;;;;;;16.10;99.90;;;;;;5072036;28;20614;-66
2023/10/04 00:41:55;;;;;;;;;;;16.20;99.90;;;;;;5072981;28;20011;-65
2023/10/04 00:44:25;;;;;;;;;;;16.20;99.90;;;;;;5070990;28;19938;-67
2023/10/04 00:46:54;;;;;;;;;;;16.20;99.90;;;;;;5071096;28;20452;-65
2023/10/04 00:49:22;;;;;;;;;;;16.10;99.90;;;;;;5079911;28;20570;-65
2023/10/04 00:51:51;;;;;;;;;;;16.00;99.90;;;;;;5077563;28;20436;-63
2023/10/04 00:54:19;;;;;;;;;;;15.80;99.90;;;;;;5073105;28;20386;-63
2023/10/04 00:56:47;;;;;;;;;;;15.60;99.90;;;;;;5076503;28;19931;-64
2023/10/04 00:59:16;;;;;;;;;;;15.30;99.90;;;;;;5082170;28;20348;-63
2023/10/04 01:01:46;;;;;;;;;;;15.10;99.90;;;;;;5079777;28;20379;-64
2023/10/04 01:04:14;;;;;;;;;;;14.80;99.90;;;;;;5071062;28;20402;-64
2023/10/04 01:06:44;;;;;;;;;;;14.90;99.90;;;;;;5070983;28;19931;-63
2023/10/04 01:09:13;;;;;;;;;;;14.70;99.90;;;;;;5079460;28;20330;-64
2023/10/04 01:11:46;;;;;;;;;;;14.40;99.90;;;;;;5079894;28;19978;-63
2023/10/04 01:14:19;;;;;;;;;;;14.40;99.90;;;;;;5070897;28;19934;-64
2023/10/04 01:16:50;;;;;;;;;;;14.30;99.90;;;;;;5079540;28;19928;-63
2023/10/04 01:19:18;;;;;;;;;;;14.30;99.90;;;;;;5070834;28;19978;-63
2023/10/04 01:21:45;;;;;;;;;;;14.30;99.90;;;;;;5076035;28;19930;-64
2023/10/04 01:24:15;;;;;;;;;;;14.10;99.90;;;;;;5073664;28;19932;-64
2023/10/04 01:26:42;;;;;;;;;;;14.00;99.90;;;;;;5070526;28;19931;-64
2023/10/04 01:29:12;;;;;;;;;;;14.20;99.90;;;;;;5079096;28;19993;-64
2023/10/04 01:31:39;;;;;;;;;;;14.20;99.90;;;;;;5063292;28;19931;-64
2023/10/04 01:34:08;;;;;;;;;;;14.00;99.90;;;;;;5078719;28;19931;-63
2023/10/04 01:36:38;;;;;;;;;;;14.10;99.90;;;;;;5073879;28;19932;-63
2023/10/04 01:39:07;;;;;;;;;;;14.20;99.90;;;;;;5076167;28;19924;-66
2023/10/04 01:41:38;;;;;;;;;;;13.80;99.90;;;;;;5075418;28;19925;-65
2023/10/04 01:44:09;;;;;;;;;;;13.50;99.90;;;;;;5074869;28;19924;-65
2023/10/04 01:46:38;;;;;;;;;;;13.10;99.90;;;;;;5069190;28;19925;-64
2023/10/04 01:49:07;;;;;;;;;;;12.90;99.90;;;;;;5074553;28;20019;-65
2023/10/04 01:51:35;;;;;;;;;;;13.10;99.90;;;;;;5083135;28;19981;-66
2023/10/04 01:54:03;;;;;;;;;;;12.90;99.90;;;;;;5083231;28;19924;-65
2023/10/04 01:56:32;;;;;;;;;;;13.10;99.90;;;;;;5077023;28;19931;-65
2023/10/04 01:59:02;;;;;;;;;;;13.20;99.90;;;;;;5086431;28;19960;-65
2023/10/04 02:01:31;;;;;;;;;;;13.10;99.90;;;;;;5075578;28;19924;-65
2023/10/04 02:03:59;;;;;;;;;;;13.30;99.90;;;;;;5074237;28;19925;-64
2023/10/04 02:06:29;;;;;;;;;;;13.40;99.90;;;;;;5076080;28;20369;-64
2023/10/04 02:08:57;;;;;;;;;;;13.30;99.90;;;;;;5086349;28;19964;-65
2023/10/04 02:11:24;;;;;;;;;;;13.30;99.90;;;;;;5076381;28;20449;-65
2023/10/04 02:13:52;;;;;;;;;;;13.00;99.90;;;;;;5074018;28;19924;-64
2023/10/04 02:16:21;;;;;;;;;;;12.70;99.90;;;;;;5082477;28;19924;-65
2023/10/04 02:18:50;;;;;;;;;;;12.70;99.90;;;;;;5074034;28;20023;-63
2023/10/04 02:21:19;;;;;;;;;;;12.90;99.90;;;;;;5077422;28;19959;-63
2023/10/04 02:23:47;;;;;;;;;;;12.90;99.90;;;;;;5082302;28;19929;-63
2023/10/04 02:26:15;;;;;;;;;;;13.30;99.90;;;;;;5074079;28;20288;-64
2023/10/04 02:28:45;;;;;;;;;;;13.10;99.90;;;;;;5065893;28;19932;-64
2023/10/04 02:31:13;;;;;;;;;;;13.00;99.90;;;;;;5074143;28;20026;-64
2023/10/04 02:33:42;;;;;;;;;;;13.30;99.90;;;;;;5082233;28;20415;-63
2023/10/04 02:36:10;;;;;;;;;;;12.90;99.90;;;;;;5074347;28;19924;-63
2023/10/04 02:38:38;;;;;;;;;;;13.40;99.90;;;;;;5084716;28;19932;-64
2023/10/04 02:41:06;;;;;;;;;;;13.60;99.90;;;;;;5078923;28;20410;-63
2023/10/04 02:43:35;;;;;;;;;;;13.60;99.90;;;;;;5081775;28;19971;-62
2023/10/04 02:46:03;;;;;;;;;;;13.50;99.90;;;;;;5073785;28;19936;-63
2023/10/04 02:48:32;;;;;;;;;;;13.60;99.90;;;;;;5083653;28;20573;-63
2023/10/04 02:51:02;;;;;;;;;;;13.70;99.90;;;;;;5079295;28;20279;-63
2023/10/04 02:53:30;;;;;;;;;;;13.80;99.90;;;;;;5083165;28;19924;-64
2023/10/04 02:55:58;;;;;;;;;;;13.70;99.90;;;;;;5085349;28;20027;-63
2023/10/04 02:58:26;;;;;;;;;;;14.00;99.90;;;;;;5078376;28;19989;-63
2023/10/04 03:00:54;;;;;;;;;;;14.10;99.90;;;;;;5078468;28;19924;-64
2023/10/04 03:03:24;;;;;;;;;;;14.20;99.90;;;;;;5076234;28;20402;-64
2023/10/04 03:05:54;;;;;;;;;;;14.00;99.90;;;;;;5086259;28;19924;-65
2023/10/04 03:08:24;;;;;;;;;;;14.40;99.90;;;;;;5084467;28;19928;-63
2023/10/04 03:10:55;;;;;;;;;;;14.50;99.90;;;;;;5081801;28;19928;-65
2023/10/04 03:13:24;;;;;;;;;;;14.80;99.90;;;;;;5072881;28;19932;-64
2023/10/04 03:15:52;;;;;;;;;;;14.90;99.90;;;;;;5081564;28;20020;-63
2023/10/04 03:18:21;;;;;;;;;;;15.30;99.90;;;;;;5083686;28;20345;-63
2023/10/04 03:20:56;;;;;;;;;;;15.30;99.90;;;;;;5065280;28;19982;-62
2023/10/04 03:23:28;;;;;;;;;;;15.40;99.90;;;;;;5081233;28;20350;-63
2023/10/04 03:25:57;;;;;;;;;;;15.50;99.90;;;;;;5079922;28;19924;-63
2023/10/04 03:28:25;;;;;;;;;;;15.70;99.90;;;;;;5072573;28;19974;-63
2023/10/04 03:30:53;;;;;;;;;;;15.80;99.90;;;;;;5081425;28;19924;-63
2023/10/04 03:33:21;;;;;;;;;;;15.90;99.90;;;;;;5073000;28;20371;-63
2023/10/04 03:35:49;;;;;;;;;;;15.80;99.90;;;;;;5072929;28;19931;-63
2023/10/04 03:38:19;;;;;;;;;;;15.50;99.90;;;;;;5080082;28;19924;-63
2023/10/04 03:40:48;;;;;;;;;;;15.30;99.90;;;;;;5072601;28;19935;-64
2023/10/04 03:43:16;;;;;;;;;;;15.20;99.90;;;;;;5072610;28;19929;-63
2023/10/04 03:45:44;;;;;;;;;;;15.40;99.90;;;;;;5072433;28;19998;-63
2023/10/04 03:48:15;;;;;;;;;;;15.60;99.90;;;;;;5072510;28;19924;-64
2023/10/04 03:50:45;;;;;;;;;;;15.70;99.90;;;;;;5080731;28;19928;-64
2023/10/04 03:53:12;;;;;;;;;;;15.50;99.90;;;;;;5072236;28;19924;-64
2023/10/04 03:55:41;;;;;;;;;;;15.40;99.90;;;;;;5080638;28;19924;-63
2023/10/04 03:58:11;;;;;;;;;;;15.20;99.90;;;;;;5078396;28;19924;-62
2023/10/04 04:00:40;;;;;;;;;;;15.00;99.90;;;;;;5082008;28;19928;-65
2023/10/04 04:03:10;;;;;;;;;;;14.90;99.90;;;;;;5078408;28;20360;-64
2023/10/04 04:05:41;;;;;;;;;;;15.20;99.90;;;;;;5073603;28;19924;-64
2023/10/04 04:08:09;;;;;;;;;;;15.00;99.90;;;;;;5078054;28;20019;-62
2023/10/04 04:10:37;;;;;;;;;;;15.40;99.90;;;;;;5073440;28;19925;-62
2023/10/04 04:13:05;;;;;;;;;;;15.50;99.90;;;;;;5072009;28;20402;-64
2023/10/04 04:15:35;;;;;;;;;;;15.20;99.90;;;;;;5071826;28;19924;-65
2023/10/04 04:18:06;;;;;;;;;;;15.10;99.90;;;;;;5071953;28;20360;-65
2023/10/04 04:20:35;;;;;;;;;;;15.30;99.90;;;;;;5080215;28;19978;-62
2023/10/04 04:23:04;;;;;;;;;;;15.30;99.90;;;;;;5079951;28;19924;-62
2023/10/04 04:25:33;;;;;;;;;;;15.10;99.90;;;;;;5080712;28;20299;-63
2023/10/04 04:28:03;;;;;;;;;;;15.20;99.90;;;;;;5071372;28;20299;-65
2023/10/04 04:30:32;;;;;;;;;;;15.50;99.90;;;;;;5071389;28;19924;-65
2023/10/04 04:33:04;;;;;;;;;;;15.30;99.90;;;;;;5072159;28;20364;-64
2023/10/04 04:35:47;;;;;;;;;;;15.70;99.90;;;;;;5079892;28;19925;-65
2023/10/04 04:38:16;;;;;;;;;;;15.60;99.90;;;;;;5078092;28;19931;-64
2023/10/04 04:40:46;;;;;;;;;;;16.00;99.90;;;;;;5080832;28;20378;-64
2023/10/04 04:43:35;;;;;;;;;;;15.50;99.90;;;;;;5071297;28;19928;-64
2023/10/04 04:46:07;;;;;;;;;;;15.60;99.90;;;;;;5071645;28;19932;-63
2023/10/04 04:48:37;;;;;;;;;;;15.80;99.90;;;;;;5079715;28;20019;-64
2023/10/04 04:51:11;;;;;;;;;;;15.90;99.90;;;;;;5071754;28;20011;-64
2023/10/04 04:53:40;;;;;;;;;;;15.70;99.90;;;;;;5069942;28;19951;-64
2023/10/04 04:56:12;;;;;;;;;;;15.60;99.90;;;;;;5079681;28;19928;-64
2023/10/04 04:58:41;;;;;;;;;;;15.60;99.90;;;;;;5080910;28;19935;-63
2023/10/04 05:01:11;;;;;;;;;;;15.60;99.90;;;;;;5077771;28;19925;-64
2023/10/04 05:03:42;;;;;;;;;;;15.60;99.90;;;;;;5068641;28;19931;-63
2023/10/04 05:06:14;;;;;;;;;;;15.60;99.90;;;;;;5071332;28;19946;-64
2023/10/04 05:08:42;;;;;;;;;;;15.50;99.90;;;;;;5079514;28;20383;-64
2023/10/04 05:11:10;;;;;;;;;;;15.30;99.90;;;;;;5079345;28;19929;-64
2023/10/04 05:13:37;;;;;;;;;;;15.50;99.90;;;;;;5071220;28;19935;-64
2023/10/04 05:16:05;;;;;;;;;;;15.40;99.90;;;;;;5082754;28;19973;-65
2023/10/04 05:18:34;;;;;;;;;;;15.40;99.90;;;;;;5070698;28;19990;-63
2023/10/04 05:21:05;;;;;;;;;;;15.50;99.90;;;;;;5078695;28;19974;-64
2023/10/04 05:23:33;;;;;;;;;;;15.50;99.90;;;;;;5078859;28;19925;-64
2023/10/04 05:26:00;;;;;;;;;;;16.00;99.90;;;;;;5071013;28;19932;-64
2023/10/04 05:28:27;;;;;;;;;;;16.40;99.90;;;;;;5071099;28;20411;-64
2023/10/04 05:30:55;;;;;;;;;;;16.10;99.90;;;;;;5079106;28;19924;-64
2023/10/04 05:33:23;;;;;;;;;;;16.20;99.90;;;;;;5071050;28;19928;-63
2023/10/04 05:35:53;;;;;;;;;;;16.00;99.90;;;;;;5070557;28;20398;-63
2023/10/04 05:38:23;;;;;;;;;;;15.90;99.90;;;;;;5077370;28;19935;-63
2023/10/04 05:40:51;;;;;;;;;;;15.80;99.90;;;;;;5074091;28;19932;-65
2023/10/04 05:43:19;;;;;;;;;;;15.70;99.90;;;;;;5067697;28;19955;-66
2023/10/04 05:45:48;;;;;;;;;;;15.50;99.90;;;;;;5057288;28;19955;-65
2023/10/04 05:48:19;;;;;;;;;;;14.90;99.90;;;;;;5057557;28;19931;-66
2023/10/04 05:50:49;;;;;;;;;;;14.40;99.90;;;;;;5055935;28;20395;-67
2023/10/04 05:53:19;;;;;;;;;;;14.00;99.90;;;;;;5056369;28;19932;-67
2023/10/04 05:55:49;;;;;;;;;;;13.70;99.90;;;;;;5057781;28;19975;-65
2023/10/04 05:58:17;;;;;;;;;;;13.30;99.90;;;;;;5056710;28;19933;-67
2023/10/04 06:00:51;;;;;;;;;;;13.00;99.90;;;;;;5057667;28;19932;-64
2023/10/04 06:03:20;;;;;;;;;;;12.60;99.90;;;;;;5057473;28;19932;-65
2023/10/04 06:05:50;;;;;;;;;;;12.40;99.90;;;;;;5057958;28;19960;-64
2023/10/04 06:08:19;;;;;;;;;;;12.10;99.90;;;;;;5068092;28;19928;-65
2023/10/04 06:10:50;;;;;;;;;;;11.90;99.90;;;;;;5072230;28;19927;-64
2023/10/04 06:13:18;;;;;;;;;;;11.70;99.90;;;;;;5062211;28;19936;-64
2023/10/04 06:15:47;;;;;;;;;;;11.70;99.90;;;;;;5066358;28;19928;-64
2023/10/04 06:18:16;;;;;;;;;;;11.50;99.90;;;;;;5070470;28;19925;-65
2023/10/04 06:20:45;;;;;;;;;;;11.30;99.90;;;;;;5079346;28;20006;-65
2023/10/04 06:23:14;;;;;;;;;;;11.20;99.90;;;;;;5082151;28;19928;-63
2023/10/04 06:25:44;;;;;;;;;;;11.10;99.90;;;;;;5082469;28;20060;-64
2023/10/04 06:28:13;;;;;;;;;;;11.00;99.90;;;;;;5077836;28;19929;-65
2023/10/04 06:30:42;;;;;;;;;;;11.00;99.90;;;;;;5073358;28;19966;-65
2023/10/04 06:33:11;;;;;;;;;;;10.90;99.90;;;;;;5071743;28;20015;-65
2023/10/04 06:35:41;;;;;;;;;;;11.10;99.90;;;;;;5081309;28;19928;-69
2023/10/04 06:38:10;;;;;;;;;;;11.30;99.90;;;;;;5073879;28;19978;-65
2023/10/04 06:40:38;;;;;;;;;;;11.50;99.90;;;;;;5073569;28;20460;-65
2023/10/04 06:43:08;;;;;;;;;;;11.60;99.90;;;;;;5069256;28;19925;-64
2023/10/04 06:45:37;;;;;;;;;;;11.70;99.90;;;;;;5081785;28;20410;-65
2023/10/04 06:48:05;;;;;;;;;;;11.80;99.90;;;;;;5065473;28;19931;-65
2023/10/04 06:50:38;;;;;;;;;;;12.10;99.90;;;;;;5073382;28;20020;-65
2023/10/04 06:53:08;;;;;;;;;;;12.20;99.90;;;;;;5065780;28;19960;-65
2023/10/04 06:55:37;;;;;;;;;;;12.40;99.90;;;;;;5073793;28;19928;-65
2023/10/04 06:58:06;;;;;;;;;;;12.60;99.90;;;;;;5081897;28;20311;-65
2023/10/04 07:00:36;;;;;;;;;;;12.70;99.90;;;;;;5073649;28;20618;-65
2023/10/04 07:03:08;;;;;;;;;;;12.70;99.90;;;;;;5065392;28;19970;-65
2023/10/04 07:05:36;;;;;;;;;;;12.60;99.90;;;;;;5073697;28;19971;-65
2023/10/04 07:08:05;;;;;;;;;;;12.60;99.90;;;;;;5073503;28;20186;-65
2023/10/04 07:10:34;;;;;;;;;;;12.40;99.90;;;;;;5073188;28;20384;-64
2023/10/04 07:13:03;;;;;;;;;;;12.30;99.90;;;;;;5073037;28;19952;-65
2023/10/04 07:15:35;;;;;;;;;;;12.30;99.90;;;;;;5080512;28;20306;-67
2023/10/04 07:18:06;;;;;;;;;;;12.20;99.90;;;;;;5073031;28;20410;-65
2023/10/04 07:20:36;;;;;;;;;;;12.30;99.90;;;;;;5073132;28;20395;-65
2023/10/04 07:23:05;;;;;;;;;;;12.40;99.90;;;;;;5072635;28;19932;-67
2023/10/04 07:25:34;;;;;;;;;;;12.50;99.90;;;;;;5073070;28;19928;-65
2023/10/04 07:28:03;;;;;;;;;;;12.80;99.90;;;;;;5072713;28;20417;-65
2023/10/04 07:30:31;;;;;;;;;;;13.10;99.90;;;;;;5072903;28;19929;-65
2023/10/04 07:33:05;;;;;;;;;;;13.00;99.90;;;;;;5081149;28;19924;-65
2023/10/04 07:35:33;;;;;;;;;;;13.20;99.90;;;;;;5073032;28;19924;-66
2023/10/04 07:38:04;;;;;;;;;;;13.10;99.90;;;;;;5072255;28;19932;-65
2023/10/04 07:40:32;;;;;;;;;;;13.10;99.90;;;;;;5073179;28;19935;-64
2023/10/04 07:43:01;;;;;;;;;;;13.40;99.90;;;;;;5072093;28;19925;-64
2023/10/04 07:45:30;;;;;;;;;;;13.60;99.90;;;;;;5079688;28;19967;-65
2023/10/04 07:47:59;;;;;;;;;;;13.40;99.90;;;;;;5073186;28;20027;-66
2023/10/04 07:50:28;;;;;;;;;;;13.40;99.90;;;;;;5072428;28;20486;-66
2023/10/04 07:52:58;;;;;;;;;;;13.50;99.90;;;;;;5081268;28;20391;-65
2023/10/04 07:55:28;;;;;;;;;;;13.70;99.90;;;;;;5072538;28;19932;-65
2023/10/04 07:57:58;;;;;;;;;;;13.60;99.90;;;;;;5071987;28;19952;-65
2023/10/04 08:00:26;;;;;;;;;;;13.60;99.90;;;;;;5072408;28;19930;-65
2023/10/04 08:02:54;;;;;;;;;;;13.70;99.90;;;;;;5072020;28;19982;-65
2023/10/04 08:05:24;;;;;;;;;;;13.80;99.90;;;;;;5072287;28;20019;-65
2023/10/04 08:07:53;;;;;;;;;;;14.00;99.90;;;;;;5080489;28;19938;-65
2023/10/04 08:10:23;;;;;;;;;;;14.10;99.90;;;;;;5072022;28;19928;-66
2023/10/04 08:12:54;;;;;;;;;;;14.00;99.90;;;;;;5071658;28;19975;-65
2023/10/04 08:15:25;;;;;;;;;;;14.00;99.90;;;;;;5077833;28;19974;-65
2023/10/04 08:17:54;;;;;;;;;;;14.30;99.90;;;;;;5074294;28;19970;-65
2023/10/04 08:20:22;;;;;;;;;;;14.40;99.90;;;;;;5072068;28;20363;-65
2023/10/04 08:22:50;;;;;;;;;;;14.70;99.90;;;;;;5079718;28;19925;-65
2023/10/04 08:25:19;;;;;;;;;;;15.00;99.90;;;;;;5072022;28;19932;-65
2023/10/04 08:27:48;;;;;;;;;;;15.10;99.90;;;;;;5071487;28;19925;-65
2023/10/04 08:30:18;;;;;;;;;;;15.30;99.90;;;;;;5071905;28;19931;-65
2023/10/04 08:32:47;;;;;;;;;;;15.30;99.90;;;;;;5079701;28;19928;-65
2023/10/04 08:35:24;;;;;;;;;;;15.40;99.90;;;;;;5071729;28;20347;-65
2023/10/04 08:37:54;;;;;;;;;;;15.60;99.90;;;;;;5080103;28;19935;-65
2023/10/04 08:40:22;;;;;;;;;;;15.90;99.90;;;;;;5071852;28;19924;-65
2023/10/04 08:42:51;;;;;;;;;;;16.30;99.90;;;;;;5071085;28;19929;-65
2023/10/04 08:45:20;;;;;;;;;;;16.50;99.90;;;;;;5077194;28;20367;-64
2023/10/04 08:47:51;;;;;;;;;;;16.70;99.90;;;;;;5080694;28;19931;-65
2023/10/04 08:50:27;;;;;;;;;;;16.90;99.90;;;;;;5076256;28;19931;-65
2023/10/04 08:52:59;;;;;;;;;;;16.90;99.90;;;;;;5081291;28;19931;-66
2023/10/04 08:55:27;;;;;;;;;;;17.10;99.90;;;;;;5071518;28;19925;-65
2023/10/04 08:57:57;;;;;;;;;;;17.10;99.90;;;;;;5071019;28;19950;-65
2023/10/04 09:00:29;;;;;;;;;;;16.90;99.90;;;;;;5071525;28;19925;-65
2023/10/04 09:03:00;;;;;;;;;;;17.00;99.90;;;;;;5071200;28;19924;-65
2023/10/04 09:05:28;;;;;;;;;;;17.20;99.90;;;;;;5071449;28;19931;-65
2023/10/04 09:07:56;;;;;;;;;;;17.40;99.90;;;;;;5071724;28;19932;-65
2023/10/04 09:10:28;;;;;;;;;;;17.50;99.90;;;;;;5079077;28;20283;-65
2023/10/04 09:12:56;;;;;;;;;;;17.50;99.90;;;;;;5070293;28;19932;-66
2023/10/04 09:15:26;;;;;;;;;;;17.70;99.90;;;;;;5077256;28;19924;-65
2023/10/04 09:17:57;;;;;;;;;;;18.10;99.90;;;;;;5072760;28;19925;-66
2023/10/04 09:20:27;;;;;;;;;;;18.30;99.90;;;;;;5071281;28;19924;-66
2023/10/04 09:22:55;;;;;;;;;;;18.00;99.90;;;;;;5071777;28;19928;-65
2023/10/04 09:25:23;;;;;;;;;;;18.40;99.90;;;;;;5077584;28;19982;-65
2023/10/04 09:27:55;;;;;;;;;;;18.60;99.90;;;;;;5070831;28;19935;-65
2023/10/04 09:30:25;;;;;;;;;;;18.60;99.90;;;;;;5052741;28;19924;-65
2023/10/04 09:32:53;;;;;;;;;;;18.90;99.90;;;;;;5080042;28;19931;-66
2023/10/04 09:35:22;;;;;;;;;;;19.10;99.90;;;;;;5077675;28;19967;-66
2023/10/04 09:37:50;;;;;;;;;;;19.30;99.90;;;;;;5070640;28;20333;-66
2023/10/04 09:40:23;;;;;;;;;;;19.40;99.90;;;;;;5070980;28;19932;-66
2023/10/04 09:42:53;;;;;;;;;;;19.50;99.90;;;;;;5070218;28;19928;-65
2023/10/04 09:45:23;;;;;;;;;;;19.80;99.90;;;;;;5076552;28;19924;-66
2023/10/04 09:47:50;;;;;;;;;;;19.60;99.90;;;;;;5072733;28;19934;-65
2023/10/04 09:50:23;;;;;;;;;;;19.30;99.90;;;;;;5070953;28;19932;-66
2023/10/04 09:52:51;;;;;;;;;;;19.40;99.90;;;;;;5070270;28;20394;-66
2023/10/04 09:55:21;;;;;;;;;;;19.10;99.90;;;;;;5070969;28;19939;-65
2023/10/04 09:57:50;;;;;;;;;;;19.10;99.90;;;;;;5070516;28;19974;-65
2023/10/04 10:00:22;;;;;;;;;;;19.30;99.90;;;;;;5072095;28;19925;-65
2023/10/04 10:02:52;;;;;;;;;;;19.40;99.90;;;;;;5075304;28;19924;-66
2023/10/04 10:05:26;;;;;;;;;;;19.50;99.90;;;;;;5073526;28;20002;-65
2023/10/04 10:07:54;;;;;;;;;;;19.60;99.90;;;;;;5074140;28;19960;-65
2023/10/04 10:10:23;;;;;;;;;;;19.80;99.90;;;;;;5079985;28;20391;-64
2023/10/04 10:12:51;;;;;;;;;;;19.80;99.90;;;;;;5076516;28;19935;-65
2023/10/04 10:15:19;;;;;;;;;;;19.80;99.90;;;;;;5079502;28;19928;-65
2023/10/04 10:17:48;;;;;;;;;;;19.90;99.90;;;;;;5077375;28;19925;-65
2023/10/04 10:20:16;;;;;;;;;;;19.90;99.90;;;;;;5087783;28;19956;-65
2023/10/04 10:23:03;;;;;;;;;;;20.00;99.90;;;;;;5073851;28;19928;-65
2023/10/04 10:25:33;;;;;;;;;;;20.30;99.90;;;;;;5072219;28;19925;-65
2023/10/04 10:28:02;;;;;;;;;;;20.30;99.90;;;;;;5073699;28;20399;-65
2023/10/04 10:30:31;;;;;;;;;;;20.40;99.90;;;;;;5074151;28;20383;-66
2023/10/04 10:33:02;;;;;;;;;;;20.60;99.90;;;;;;5073789;28;19924;-65
2023/10/04 10:35:48;;;;;;;;;;;20.60;99.90;;;;;;5074373;28;20199;-65
2023/10/04 10:38:44;;;;;;;;;;;20.80;99.90;;;;;;5065833;28;19942;-65
2023/10/04 10:41:27;;;;;;;;;;;20.60;99.90;;;;;;5065985;28;19933;-65
2023/10/04 10:44:09;;;;;;;;;;;20.70;99.90;;;;;;5078906;28;19970;-65
2023/10/04 10:46:52;;;;;;;;;;;20.90;99.90;;;;;;5065694;28;19924;-64
2023/10/04 10:49:56;;;;;;;;;;;20.90;99.90;;;;;;5075686;28;20302;-64
2023/10/04 10:52:34;;;;;;;;;;;20.90;99.90;;;;;;5011775;28;19968;-65
2023/10/04 10:55:06;;;;;;;;;;;21.20;99.90;;;;;;5011199;28;20503;-65
2023/10/04 10:57:36;;;;;;;;;;;21.30;99.90;;;;;;5046221;28;19932;-65
2023/10/04 11:00:12;;;;;;;;;;;21.10;99.90;;;;;;5073551;28;19924;-65
2023/10/04 11:02:41;;;;;;;;;;;20.80;99.90;;;;;;5073507;28;20365;-66
2023/10/04 11:05:12;;;;;;;;;;;20.80;99.90;;;;;;5073197;28;19978;-65
2023/10/04 11:07:40;;;;;;;;;;;20.80;99.90;;;;;;5073458;28;19932;-65
2023/10/04 11:10:08;;;;;;;;;;;21.10;99.90;;;;;;5073391;28;19931;-65
2023/10/04 11:12:38;;;;;;;;;;;21.00;99.90;;;;;;5072150;28;19925;-66
2023/10/04 11:15:07;;;;;;;;;;;21.00;99.90;;;;;;5076185;28;20015;-65
2023/10/04 11:17:36;;;;;;;;;;;21.00;99.90;;;;;;5078054;28;19924;-65
2023/10/04 11:20:11;;;;;;;;;;;21.10;99.90;;;;;;5073297;28;20019;-64
2023/10/04 11:22:39;;;;;;;;;;;21.30;99.90;;;;;;5073010;28;19931;-66
2023/10/04 11:25:08;;;;;;;;;;;21.70;99.90;;;;;;5073044;28;19924;-66
2023/10/04 11:27:39;;;;;;;;;;;21.80;99.90;;;;;;5072552;28;19925;-65
2023/10/04 11:30:09;;;;;;;;;;;22.20;99.90;;;;;;5072789;28;20035;-65
2023/10/04 11:32:38;;;;;;;;;;;22.50;99.90;;;;;;5072989;28;19929;-65
2023/10/04 11:35:08;;;;;;;;;;;22.70;99.90;;;;;;5072759;28;19978;-65
2023/10/04 11:37:41;;;;;;;;;;;23.00;99.90;;;;;;5072775;28;19932;-65
2023/10/04 11:40:11;;;;;;;;;;;23.00;99.90;;;;;;5072779;28;19928;-65
2023/10/04 11:42:39;;;;;;;;;;;23.40;99.90;;;;;;5072575;28;19924;-66
2023/10/04 11:45:17;;;;;;;;;;;23.10;99.90;;;;;;5074754;28;20005;-66
2023/10/04 11:47:45;;;;;;;;;;;22.80;99.90;;;;;;5084905;28;19961;-64
2023/10/04 11:50:13;;;;;;;;;;;22.60;99.90;;;;;;5064977;28;20330;-65
2023/10/04 11:52:42;;;;;;;;;;;22.10;99.90;;;;;;5072385;28;19931;-65
2023/10/04 11:55:24;;;;;;;;;;;21.90;99.90;;;;;;5072198;28;19924;-65
2023/10/04 11:57:53;;;;;;;;;;;22.10;99.90;;;;;;5072238;28;19990;-66
2023/10/04 12:00:22;;;;;;;;;;;22.30;99.90;;;;;;5080751;28;20458;-66
2023/10/04 12:02:50;;;;;;;;;;;22.40;99.90;;;;;;5071971;28;19991;-65
2023/10/04 12:05:18;;;;;;;;;;;22.60;99.90;;;;;;5072375;28;19982;-65
2023/10/04 12:07:47;;;;;;;;;;;22.90;99.90;;;;;;5072340;28;20333;-66
2023/10/04 12:10:15;;;;;;;;;;;22.90;99.90;;;;;;5064402;28;19928;-64
2023/10/04 12:12:43;;;;;;;;;;;23.20;99.90;;;;;;5071779;28;20399;-66
2023/10/04 12:15:11;;;;;;;;;;;23.30;99.90;;;;;;5071338;28;19954;-65
2023/10/04 12:17:39;;;;;;;;;;;23.50;99.90;;;;;;5071767;28;20449;-66
2023/10/04 12:20:11;;;;;;;;;;;23.10;99.90;;;;;;5071718;28;20460;-65
2023/10/04 12:22:40;;;;;;;;;;;22.70;99.90;;;;;;5071496;28;19924;-66
2023/10/04 12:25:10;;;;;;;;;;;22.70;99.90;;;;;;5079228;28;19939;-66
2023/10/04 12:27:38;;;;;;;;;;;22.80;99.90;;;;;;5071773;28;19925;-65
2023/10/04 12:30:07;;;;;;;;;;;22.90;99.90;;;;;;5071454;28;19928;-65
2023/10/04 12:32:35;;;;;;;;;;;22.80;99.90;;;;;;5078372;28;19932;-65
2023/10/04 12:35:03;;;;;;;;;;;22.80;99.90;;;;;;5072964;28;19928;-65
2023/10/04 12:37:31;;;;;;;;;;;22.90;99.90;;;;;;5071593;28;19935;-65
2023/10/04 12:39:59;;;;;;;;;;;22.60;99.90;;;;;;5071512;28;20004;-65
2023/10/04 12:42:29;;;;;;;;;;;22.00;99.90;;;;;;5071622;28;20307;-65
2023/10/04 12:44:58;;;;;;;;;;;21.90;99.90;;;;;;5072112;28;19956;-66
2023/10/04 12:47:26;;;;;;;;;;;21.70;99.90;;;;;;5078013;28;19981;-65
2023/10/04 12:49:54;;;;;;;;;;;21.30;99.90;;;;;;5071363;28;20310;-66
2023/10/04 12:52:24;;;;;;;;;;;21.30;99.90;;;;;;5071607;28;19928;-66
2023/10/04 12:54:52;;;;;;;;;;;21.20;99.90;;;;;;5070964;28;19935;-65
2023/10/04 12:57:21;;;;;;;;;;;21.00;99.90;;;;;;5071303;28;19925;-65
2023/10/04 12:59:52;;;;;;;;;;;21.20;99.90;;;;;;5071724;28;19931;-65
2023/10/04 13:02:22;;;;;;;;;;;21.20;99.90;;;;;;5070359;28;19978;-65
2023/10/04 13:04:51;;;;;;;;;;;21.20;99.90;;;;;;5071124;28;20316;-65
2023/10/04 13:07:19;;;;;;;;;;;21.50;99.90;;;;;;5071099;28;19932;-65
2023/10/04 13:09:47;;;;;;;;;;;21.60;99.90;;;;;;5071379;28;19931;-65
2023/10/04 13:12:25;;;;;;;;;;;21.30;99.90;;;;;;5064504;28;20310;-65
2023/10/04 13:14:55;;;;;;;;;;;21.00;99.90;;;;;;5070608;28;20398;-65
2023/10/04 13:17:24;;;;;;;;;;;20.90;99.90;;;;;;5064112;28;19924;-65
2023/10/04 13:19:52;;;;;;;;;;;21.00;99.90;;;;;;5071134;28;20029;-64
2023/10/04 13:22:22;;;;;;;;;;;21.20;99.90;;;;;;5071255;28;19924;-65
2023/10/04 13:24:49;;;;;;;;;;;21.30;99.90;;;;;;5070488;28;19924;-64
2023/10/04 13:27:21;;;;;;;;;;;21.40;99.90;;;;;;5078514;28;19932;-66
2023/10/04 13:29:49;;;;;;;;;;;21.40;99.90;;;;;;5070866;28;19986;-67
2023/10/04 13:32:19;;;;;;;;;;;21.30;99.90;;;;;;5079329;28;20299;-65
2023/10/04 13:34:46;;;;;;;;;;;21.20;99.90;;;;;;5071485;28;19924;-65
2023/10/04 13:37:14;;;;;;;;;;;20.80;99.90;;;;;;5074771;28;20444;-65
2023/10/04 13:39:43;;;;;;;;;;;20.70;99.90;;;;;;5075105;28;19939;-66
2023/10/04 13:42:12;;;;;;;;;;;20.70;99.90;;;;;;5074798;28;19932;-65
2023/10/04 13:44:57;;;;;;;;;;;20.70;99.90;;;;;;5074548;28;20050;-64
2023/10/04 13:47:28;;;;;;;;;;;20.70;99.90;;;;;;5074905;28;19930;-65
2023/10/04 13:49:58;;;;;;;;;;;20.90;99.90;;;;;;5074538;28;20199;-65
2023/10/04 13:52:25;;;;;;;;;;;21.10;99.90;;;;;;5074907;28;19932;-65
2023/10/04 13:54:53;;;;;;;;;;;21.20;99.90;;;;;;5074653;28;19928;-65
2023/10/04 13:57:24;;;;;;;;;;;21.10;99.90;;;;;;5074776;28;20298;-65
2023/10/04 13:59:53;;;;;;;;;;;21.20;99.50;;;;;;5074693;28;19936;-65
2023/10/04 14:02:20;;;;;;;;;;;21.30;98.80;;;;;;5082242;28;19924;-66
2023/10/04 14:04:50;;;;;;;;;;;21.10;98.70;;;;;;5074664;28;20383;-65
2023/10/04 14:07:17;;;;;;;;;;;20.90;99.50;;;;;;5066654;28;20341;-66
2023/10/04 14:09:45;;;;;;;;;;;20.80;99.80;;;;;;5074381;28;20303;-65
2023/10/04 14:12:13;;;;;;;;;;;20.70;99.90;;;;;;5074320;28;19978;-66
2023/10/04 14:14:42;;;;;;;;;;;20.60;99.90;;;;;;5082404;28;19924;-65
2023/10/04 14:17:12;;;;;;;;;;;20.50;99.90;;;;;;5081682;28;19931;-65
2023/10/04 14:19:42;;;;;;;;;;;20.20;99.90;;;;;;5074006;28;19931;-65
2023/10/04 14:22:11;;;;;;;;;;;20.00;99.90;;;;;;5074217;28;19932;-65
2023/10/04 14:24:42;;;;;;;;;;;19.70;99.90;;;;;;5073762;28;20383;-65
2023/10/04 14:27:10;;;;;;;;;;;19.60;99.90;;;;;;5073993;28;19936;-65
2023/10/04 14:29:38;;;;;;;;;;;19.60;99.90;;;;;;5073745;28;19924;-65
2023/10/04 14:32:05;;;;;;;;;;;19.70;99.90;;;;;;5072709;28;20405;-65